Time;durP1;ratioP1;P1;durP2;ratioP2;P2;SDS_P1;SDS_P2;PMS_P1;PMS_P2;Temp;Humidity;BMP_temperature;BMP_pressure;BME280_temperature;BME280_humidity;BME280_pressure;Samples;Min_cycle;Max_cycle;Signal;HPM_P1;HPM_P2
2023/11/18 00:00:17;;;;;;;0.40;0.40;;;18.90;58.00;;;17.37;48.22;95232.69;5035121;28;20302;-62
2023/11/18 00:02:46;;;;;;;0.50;0.50;;;18.90;58.10;;;17.43;48.44;95243.22;5035537;28;20253;-62
2023/11/18 00:05:14;;;;;;;0.40;0.40;;;18.90;58.00;;;17.35;48.44;95224.19;5051573;28;20227;-63
2023/11/18 00:07:42;;;;;;;0.50;0.50;;;18.90;58.10;;;17.44;48.52;95249.31;5051538;28;20200;-63
2023/11/18 00:10:10;;;;;;;0.50;0.50;;;18.90;58.10;;;17.43;48.60;95245.03;5035116;28;20195;-62
2023/11/18 00:12:41;;;;;;;0.50;0.50;;;18.90;58.00;;;17.43;48.32;95245.03;5051572;28;20195;-63
2023/11/18 00:15:11;;;;;;;0.50;0.50;;;18.90;58.00;;;17.44;48.31;95246.66;5035470;28;20596;-62
2023/11/18 00:17:40;;;;;;;0.50;0.50;;;18.90;58.10;;;17.43;47.90;95251.16;5051608;28;20650;-62
2023/11/18 00:20:09;;;;;;;0.45;0.45;;;18.90;58.00;;;17.42;48.33;95249.56;5035103;28;20253;-63
2023/11/18 00:22:38;;;;;;;0.40;0.40;;;18.90;58.10;;;17.36;48.05;95241.72;5034803;28;20294;-62
2023/11/18 00:25:07;;;;;;;0.40;0.40;;;18.90;58.00;;;17.42;48.22;95251.41;5034985;28;20220;-63
2023/11/18 00:27:38;;;;;;;0.50;0.50;;;18.90;58.00;;;17.41;48.26;95252.44;5051121;28;20187;-63
2023/11/18 00:30:11;;;;;;;0.40;0.40;;;18.90;58.00;;;17.40;48.32;95251.63;5034836;28;20724;-62
2023/11/18 00:32:39;;;;;;;0.47;0.47;;;18.90;58.00;;;17.38;48.15;95248.41;5035713;28;20207;-63
2023/11/18 00:35:10;;;;;;;0.50;0.50;;;18.90;57.90;;;17.39;48.47;95254.50;5034760;28;20199;-62
2023/11/18 00:37:38;;;;;;;0.40;0.40;;;18.90;57.90;;;17.38;48.39;95259.00;5034969;28;20199;-63
2023/11/18 00:40:09;;;;;;;0.50;0.50;;;18.90;58.00;;;17.38;48.24;95269.59;5034588;28;20223;-62
2023/11/18 00:42:40;;;;;;;0.50;0.50;;;18.90;58.00;;;17.38;48.14;95266.13;5051124;28;20556;-62
2023/11/18 00:45:08;;;;;;;0.40;0.40;;;18.90;57.90;;;17.36;48.10;95273.53;5035064;28;20727;-62
2023/11/18 00:47:36;;;;;;;0.40;0.40;;;18.90;57.90;;;17.29;48.36;95261.13;5034481;28;20195;-63
2023/11/18 00:50:08;;;;;;;0.45;0.45;;;18.90;57.90;;;17.35;48.20;95280.66;5050930;28;20207;-62
2023/11/18 00:52:41;;;;;;;0.43;0.43;;;18.90;57.90;;;17.34;48.06;95286.97;5051344;28;20207;-63
2023/11/18 00:55:10;;;;;;;0.50;0.50;;;18.90;58.00;;;17.34;48.36;95292.28;5052015;28;20229;-62
2023/11/18 00:57:41;;;;;;;0.40;0.40;;;18.80;57.80;;;17.33;48.34;95295.97;5051011;28;20222;-62
2023/11/18 01:00:16;;;;;;;0.40;0.40;;;18.90;58.00;;;17.28;48.07;95290.53;5052111;28;20227;-61
2023/11/18 01:02:44;;;;;;;0.50;0.50;;;18.90;58.10;;;17.33;48.68;95289.88;5051370;28;20685;-62
2023/11/18 01:05:13;;;;;;;0.40;0.40;;;18.90;58.00;;;17.27;48.23;95286.25;5034462;28;20663;-62
2023/11/18 01:07:42;;;;;;;0.50;0.50;;;18.80;57.90;;;17.32;48.61;95297.03;5051089;28;20199;-63
2023/11/18 01:10:11;;;;;;;0.40;0.40;;;18.80;58.00;;;17.33;48.36;95295.16;5051234;28;20683;-63
2023/11/18 01:12:40;;;;;;;0.43;0.43;;;18.80;58.00;;;17.26;48.53;95284.66;5050995;28;20207;-62
2023/11/18 01:15:10;;;;;;;0.40;0.40;;;18.80;58.00;;;17.33;48.51;95300.47;5050854;28;20643;-61
2023/11/18 01:17:38;;;;;;;0.40;0.40;;;18.80;58.10;;;17.34;48.32;95302.09;5050926;28;20339;-62
2023/11/18 01:20:10;;;;;;;0.45;0.45;;;18.80;58.00;;;17.27;48.29;95299.50;5034403;28;20208;-62
2023/11/18 01:22:39;;;;;;;0.40;0.40;;;18.80;58.00;;;17.32;48.39;95299.69;5035022;28;20200;-61
2023/11/18 01:25:08;;;;;;;0.40;0.40;;;18.80;58.00;;;17.32;48.41;95304.16;5050868;28;20187;-61
2023/11/18 01:27:36;;;;;;;0.40;0.40;;;18.80;57.90;;;17.33;48.10;95313.72;5034332;28;20200;-61
2023/11/18 01:30:04;;;;;;;0.40;0.40;;;18.80;58.00;;;17.33;48.39;95305.78;5050586;28;20204;-63
2023/11/18 01:32:32;;;;;;;0.40;0.40;;;18.80;58.00;;;17.26;48.30;95304.03;5050825;28;20706;-61
2023/11/18 01:35:00;;;;;;;0.40;0.40;;;18.80;58.00;;;17.34;48.59;95315.34;5050817;28;20201;-63
2023/11/18 01:37:28;;;;;;;0.40;0.40;;;18.80;58.00;;;17.33;48.16;95316.38;5034130;28;20281;-62
2023/11/18 01:39:55;;;;;;;0.50;0.50;;;18.80;58.00;;;17.34;48.39;95316.16;5050509;28;20207;-61
2023/11/18 01:42:23;;;;;;;0.40;0.40;;;18.80;58.00;;;17.34;48.17;95323.31;5033771;28;20234;-62
2023/11/18 01:44:51;;;;;;;0.47;0.47;;;18.80;57.90;;;17.27;48.22;95300.34;5051565;28;20223;-63
2023/11/18 01:47:18;;;;;;;0.50;0.50;;;18.90;58.10;;;17.27;48.14;95304.81;5054571;28;20603;-63
2023/11/18 01:49:46;;;;;;;0.50;0.50;;;18.80;58.00;;;17.33;48.32;95317.19;5037697;28;20203;-63
2023/11/18 01:52:13;;;;;;;0.40;0.40;;;18.80;58.00;;;17.33;48.41;95309.22;5054056;28;20232;-63
2023/11/18 01:54:44;;;;;;;0.40;0.40;;;18.80;58.00;;;17.34;48.43;95312.69;5037588;28;20203;-62
2023/11/18 01:57:14;;;;;;;0.40;0.40;;;18.80;58.00;;;17.34;48.29;95320.66;5037784;28;20314;-62
2023/11/18 01:59:41;;;;;;;0.40;0.40;;;18.80;58.00;;;17.31;48.38;95316.63;5037572;28;20243;-63
2023/11/18 02:02:09;;;;;;;0.50;0.50;;;18.80;58.00;;;17.22;48.38;95296.72;5037615;28;20211;-62
2023/11/18 02:04:36;;;;;;;0.50;0.50;;;18.80;58.00;;;17.35;48.34;95324.94;5037085;28;20234;-62
2023/11/18 02:07:09;;;;;;;0.40;0.40;;;18.80;58.00;;;17.27;48.30;95313.59;5037240;28;20609;-62
2023/11/18 02:09:37;;;;;;;0.40;0.40;;;18.80;58.00;;;17.33;48.30;95325.13;5053853;28;20184;-62
2023/11/18 02:12:40;;;;;;;0.43;0.43;;;18.90;58.00;;;17.25;48.16;95306.91;5037385;28;20203;-61
2023/11/18 02:15:09;;;;;;;0.40;0.40;;;18.80;58.00;;;17.32;48.49;95322.72;5037168;28;20214;-62
2023/11/18 02:17:39;;;;;;;0.40;0.40;;;18.80;58.00;;;17.26;49.06;95314.63;5053701;28;20223;-61
2023/11/18 02:20:14;;;;;;;0.50;0.50;;;18.90;58.00;;;17.20;48.58;95304.91;5036954;28;20283;-62
2023/11/18 02:22:48;;;;;;;0.40;0.40;;;18.80;58.00;;;17.35;48.25;95324.94;5037730;28;20199;-63
2023/11/18 02:25:18;;;;;;;0.40;0.40;;;18.90;58.10;;;17.35;48.74;95325.72;5053946;28;20203;-62
2023/11/18 02:27:47;;;;;;;0.50;0.50;;;18.80;58.00;;;17.35;48.35;95323.06;5036920;28;20237;-62
2023/11/18 02:30:17;;;;;;;0.50;0.50;;;18.80;58.00;;;17.36;48.46;95315.94;5037034;28;20199;-62
2023/11/18 02:32:54;;;;;;;0.47;0.47;;;18.80;58.00;;;17.37;48.59;95328.97;5053346;28;20210;-62
2023/11/18 02:35:29;;;;;;;0.50;0.50;;;18.80;58.00;;;17.37;48.56;95323.66;5036801;28;20202;-61
2023/11/18 02:38:00;;;;;;;0.50;0.50;;;18.90;58.10;;;17.36;48.10;95311.44;5053090;28;20230;-62
2023/11/18 02:40:32;;;;;;;0.40;0.40;;;18.90;58.10;;;17.39;48.13;95318.13;5052931;28;20206;-62
2023/11/18 02:43:01;;;;;;;0.50;0.50;;;18.90;58.10;;;17.33;48.76;95309.22;5053209;28;20681;-63
2023/11/18 02:45:31;;;;;;;0.45;0.45;;;18.90;58.10;;;17.39;48.33;95316.31;5053260;28;20206;-62
2023/11/18 02:48:00;;;;;;;0.50;0.50;;;18.90;58.20;;;17.39;48.33;95313.66;5036810;28;20269;-62
2023/11/18 02:50:29;;;;;;;0.50;0.50;;;18.90;58.10;;;17.33;48.26;95301.28;5036407;28;20202;-61
2023/11/18 02:52:57;;;;;;;0.50;0.50;;;18.90;58.00;;;17.37;48.26;95302.47;5053235;28;20206;-63
2023/11/18 02:55:25;;;;;;;0.50;0.50;;;18.90;58.00;;;17.40;48.51;95309.16;5052751;28;20208;-62
2023/11/18 02:57:53;;;;;;;0.40;0.40;;;18.90;58.10;;;17.36;48.18;95310.66;5051700;28;20630;-61
2023/11/18 03:00:23;;;;;;;0.40;0.40;;;18.90;58.10;;;17.42;48.40;95312.41;5052441;28;20285;-63
2023/11/18 03:02:51;;;;;;;0.40;0.40;;;18.90;58.20;;;17.38;48.41;95312.03;5036665;28;20299;-61
2023/11/18 03:05:21;;;;;;;0.40;0.40;;;18.90;58.00;;;17.42;48.34;95315.84;5036489;28;20206;-63
2023/11/18 03:07:50;;;;;;;0.50;0.50;;;18.90;58.00;;;17.43;48.23;95320.13;5036037;28;20578;-61
2023/11/18 03:10:23;;;;;;;0.40;0.40;;;18.90;58.10;;;17.42;48.49;95321.16;5052327;28;20184;-61
2023/11/18 03:12:52;;;;;;;0.40;0.40;;;18.90;58.00;;;17.43;48.26;95312.16;5036176;28;20253;-62
2023/11/18 03:15:22;;;;;;;0.47;0.47;;;18.90;58.00;;;17.41;48.62;95324.81;5069179;28;20257;-62
2023/11/18 03:17:52;;;;;;;0.40;0.40;;;18.90;58.00;;;17.44;48.19;95320.91;5052291;28;20247;-62
2023/11/18 03:20:22;;;;;;;0.40;0.40;;;18.90;58.00;;;17.43;48.44;95322.75;5035583;28;20250;-62
2023/11/18 03:22:51;;;;;;;0.50;0.50;;;18.90;58.00;;;17.42;48.03;95315.84;5035960;28;20199;-61
2023/11/18 03:25:24;;;;;;;0.40;0.40;;;18.90;58.00;;;17.42;48.54;95320.34;5036010;28;20237;-62
2023/11/18 03:27:54;;;;;;;0.50;0.50;;;18.90;58.00;;;17.39;48.40;95315.47;5052684;28;20207;-63
2023/11/18 03:30:22;;;;;;;0.40;0.40;;;18.90;58.00;;;17.35;48.17;95307.16;5052467;28;20295;-62
2023/11/18 03:32:49;;;;;;;0.50;0.50;;;18.90;57.90;;;17.39;48.50;95323.44;5053375;28;20199;-62
2023/11/18 03:35:16;;;;;;;0.60;0.60;;;18.90;57.90;;;17.34;48.15;95308.19;5051842;28;20290;-62
2023/11/18 03:37:44;;;;;;;0.45;0.45;;;18.90;58.00;;;17.40;48.00;95325.84;5053529;28;20258;-64
2023/11/18 03:40:14;;;;;;;0.40;0.40;;;18.90;58.00;;;17.35;48.06;95317.78;5035496;28;20295;-62
2023/11/18 03:42:42;;;;;;;0.40;0.40;;;18.90;57.90;;;17.42;48.37;95325.66;5052048;28;20295;-61
2023/11/18 03:45:10;;;;;;;0.43;0.43;;;18.90;58.00;;;17.40;48.13;95330.38;5035475;28;20198;-62
2023/11/18 03:47:38;;;;;;;0.40;0.40;;;18.90;57.90;;;17.33;48.41;95311.88;5051933;28;20203;-63
2023/11/18 03:50:08;;;;;;;0.50;0.50;;;18.90;57.90;;;17.35;48.13;95317.78;5035500;28;20192;-62
2023/11/18 03:52:38;;;;;;;0.40;0.40;;;18.90;58.00;;;17.33;48.04;95319.03;5036057;28;20201;-63
2023/11/18 03:55:07;;;;;;;0.43;0.43;;;18.90;57.90;;;17.42;48.46;95342.34;5051729;28;20286;-62
2023/11/18 03:57:35;;;;;;;0.57;0.57;;;18.90;58.00;;;17.42;47.96;95334.41;5035283;28;21084;-61
2023/11/18 04:00:03;;;;;;;0.47;0.47;;;18.90;58.00;;;17.42;48.27;95344.22;5067885;28;20330;-62
2023/11/18 04:02:36;;;;;;;0.40;0.40;;;18.90;58.00;;;17.32;48.10;95334.16;5051416;28;20206;-63
2023/11/18 04:05:04;;;;;;;0.50;0.50;;;18.90;58.00;;;17.42;48.14;95346.88;5051847;28;20231;-62
2023/11/18 04:07:32;;;;;;;0.50;0.50;;;18.90;58.00;;;17.28;48.13;95319.69;5034886;28;20626;-63
2023/11/18 04:10:00;;;;;;;0.40;0.40;;;18.90;58.00;;;17.34;48.56;95320.66;5034979;28;20258;-62
2023/11/18 04:12:27;;;;;;;0.50;0.50;;;18.90;58.00;;;17.39;48.58;95340.16;5051112;28;20211;-62
2023/11/18 04:14:55;;;;;;;0.40;0.40;;;18.90;58.00;;;17.41;48.34;95339.94;5051399;28;20650;-62
2023/11/18 04:17:22;;;;;;;0.40;0.40;;;18.90;58.00;;;17.41;48.32;95339.94;5051568;28;20238;-61
2023/11/18 04:19:50;;;;;;;0.40;0.40;;;18.90;58.00;;;17.35;48.54;95328.38;5051448;28;20249;-62
2023/11/18 04:22:18;;;;;;;0.52;0.52;;;18.90;58.00;;;17.42;48.67;95347.66;5051148;28;20195;-61
2023/11/18 04:24:46;;;;;;;0.50;0.50;;;18.90;58.00;;;17.43;48.53;95336.03;5067910;28;20237;-62
2023/11/18 04:27:13;;;;;;;0.52;0.52;;;18.90;58.00;;;17.44;48.57;95339.47;5051220;28;20208;-62
2023/11/18 04:29:41;;;;;;;0.50;0.50;;;18.90;58.00;;;17.44;47.77;95339.47;5034857;28;20273;-62
2023/11/18 04:32:08;;;;;;;0.60;0.60;;;18.90;58.00;;;17.44;48.00;95342.94;5051275;28;20203;-61
2023/11/18 04:34:37;;;;;;;0.55;0.55;;;18.90;58.00;;;17.45;48.14;95357.00;5050875;28;20249;-62
2023/11/18 04:37:05;;;;;;;0.40;0.40;;;18.90;58.00;;;17.43;48.37;95351.94;5034648;28;20247;-61
2023/11/18 04:39:33;;;;;;;0.40;0.40;;;18.90;58.00;;;17.31;48.50;95343.13;5034806;28;20207;-62
2023/11/18 04:42:01;;;;;;;0.40;0.40;;;18.90;58.00;;;17.45;48.53;95346.41;5051085;28;20194;-62
2023/11/18 04:44:31;;;;;;;0.50;0.50;;;18.90;58.00;;;17.47;48.53;95357.59;5034518;28;20201;-62
2023/11/18 04:46:59;;;;;;;0.40;0.40;;;18.90;58.00;;;17.39;48.45;95340.16;5035028;28;20218;-62
2023/11/18 04:49:27;;;;;;;0.50;0.50;;;18.90;57.90;;;17.40;48.23;95349.72;5034642;28;20670;-61
2023/11/18 04:51:54;;;;;;;0.50;0.50;;;18.90;58.00;;;17.45;48.50;95351.72;5051159;28;20203;-62
2023/11/18 04:54:22;;;;;;;0.40;0.40;;;18.90;58.00;;;17.44;48.30;95358.88;5034295;28;20200;-62
2023/11/18 04:56:49;;;;;;;0.50;0.50;;;18.90;58.00;;;17.46;47.88;95368.44;5052061;28;20230;-63
2023/11/18 04:59:17;;;;;;;0.50;0.50;;;18.90;58.00;;;17.40;47.92;95355.03;5034090;28;20726;-62
2023/11/18 05:01:45;;;;;;;0.43;0.43;;;18.90;58.00;;;17.43;47.92;95367.84;5052041;28;20282;-62
2023/11/18 05:04:13;;;;;;;0.40;0.40;;;18.90;57.90;;;17.41;48.23;95358.50;5052052;28;20321;-62
2023/11/18 05:06:40;;;;;;;0.40;0.40;;;18.90;57.90;;;17.39;48.08;95360.56;5052160;28;20191;-62
2023/11/18 05:09:07;;;;;;;0.50;0.50;;;18.90;57.90;;;17.44;48.19;95369.47;5067254;28;20727;-62
2023/11/18 05:11:35;;;;;;;0.60;0.60;;;18.90;57.90;;;17.48;48.30;95385.75;5034405;28;20203;-62
2023/11/18 05:14:03;;;;;;;0.47;0.47;;;18.90;57.90;;;17.46;48.17;95374.53;5034636;28;20203;-63
2023/11/18 05:16:32;;;;;;;0.45;0.45;;;18.90;57.80;;;17.47;48.49;95383.28;5050458;28;20231;-62
2023/11/18 05:18:59;;;;;;;0.40;0.40;;;18.90;57.90;;;17.39;48.26;95366.69;5034286;28;20584;-61
2023/11/18 05:21:27;;;;;;;0.40;0.40;;;18.90;57.90;;;17.45;48.24;95380.88;5055794;28;20191;-62
2023/11/18 05:23:54;;;;;;;0.40;0.40;;;18.90;57.90;;;17.40;47.98;95372.78;5055744;28;20195;-63
2023/11/18 05:26:21;;;;;;;0.50;0.50;;;18.90;57.90;;;17.46;48.56;95381.69;5055456;28;20663;-63
2023/11/18 05:28:50;;;;;;;0.50;0.50;;;18.90;58.00;;;17.42;47.99;95379.47;5055493;28;20658;-62
2023/11/18 05:31:17;;;;;;;0.50;0.50;;;18.90;58.00;;;17.46;47.91;95387.00;5054731;28;20575;-62
2023/11/18 05:33:51;;;;;;;0.50;0.50;;;18.90;57.90;;;17.47;48.36;95386.78;5054451;28;20582;-61
2023/11/18 05:36:26;;;;;;;0.40;0.40;;;18.90;58.00;;;17.47;48.25;95385.94;5054384;28;20699;-63
2023/11/18 05:38:55;;;;;;;0.40;0.40;;;18.90;58.00;;;17.47;48.01;95391.25;5054329;28;20645;-63
2023/11/18 05:41:27;;;;;;;0.40;0.40;;;18.90;58.00;;;17.44;48.38;95393.34;5037875;28;20257;-62
2023/11/18 05:43:58;;;;;;;0.50;0.50;;;18.90;57.90;;;17.46;48.38;95393.09;5055349;28;20275;-62
2023/11/18 05:46:29;;;;;;;0.40;0.40;;;18.90;58.00;;;17.40;48.52;95378.09;5053976;28;20552;-63
2023/11/18 05:49:02;;;;;;;0.40;0.40;;;18.90;58.00;;;17.48;48.50;95382.25;5055200;28;20658;-64
2023/11/18 05:51:29;;;;;;;0.60;0.60;;;18.90;57.90;;;17.45;48.16;95386.19;5054356;28;20196;-63
2023/11/18 05:53:57;;;;;;;0.40;0.40;;;18.90;58.00;;;17.47;48.02;95397.38;5054261;28;20250;-62
2023/11/18 05:56:25;;;;;;;0.50;0.50;;;18.90;58.00;;;17.48;48.32;95395.53;5053914;28;20199;-62
2023/11/18 05:58:53;;;;;;;0.40;0.40;;;18.90;58.00;;;17.48;48.14;95406.97;5037223;28;20282;-62
2023/11/18 06:01:27;;;;;;;0.40;0.40;;;19.00;58.00;;;17.49;48.04;95413.06;5037595;28;20261;-63
2023/11/18 06:03:56;;;;;;;0.40;0.40;;;19.00;58.00;;;17.48;48.06;95412.25;5037963;28;20203;-63
2023/11/18 06:06:24;;;;;;;0.50;0.50;;;18.90;58.00;;;17.35;48.61;95380.59;5053702;28;20203;-62
2023/11/18 06:08:53;;;;;;;0.50;0.50;;;19.00;58.00;;;17.48;48.27;95414.91;5037336;28;20603;-62
2023/11/18 06:11:23;;;;;;;0.40;0.40;;;19.00;58.00;;;17.47;48.31;95405.34;5054825;28;20195;-62
2023/11/18 06:13:52;;;;;;;0.40;0.40;;;18.90;58.00;;;17.50;48.26;95415.47;5054801;28;20245;-64
2023/11/18 06:16:22;;;;;;;0.47;0.47;;;18.90;57.90;;;17.51;47.96;95416.31;5053597;28;20727;-63
2023/11/18 06:18:58;;;;;;;0.40;0.40;;;19.00;57.90;;;17.50;48.37;95422.66;5054833;28;20365;-61
2023/11/18 06:21:30;;;;;;;0.50;0.50;;;19.00;58.00;;;17.50;48.34;95431.41;5037080;28;20627;-62
2023/11/18 06:24:05;;;;;;;0.40;0.40;;;19.00;58.00;;;17.49;48.41;95426.31;5053498;28;20586;-63
2023/11/18 06:26:35;;;;;;;0.40;0.40;;;19.00;58.00;;;17.50;48.00;95435.91;5053305;28;20192;-63
2023/11/18 06:29:06;;;;;;;0.50;0.50;;;18.90;57.80;;;17.44;48.20;95432.28;5053642;28;20754;-62
2023/11/18 06:31:34;;;;;;;0.50;0.50;;;19.00;58.00;;;17.49;48.36;95437.75;5069729;28;20277;-63
2023/11/18 06:34:03;;;;;;;0.50;0.50;;;19.00;58.00;;;17.49;48.20;95443.06;5036742;28;20294;-61
2023/11/18 06:36:31;;;;;;;0.40;0.40;;;18.90;57.90;;;17.49;48.06;95444.88;5054257;28;20192;-62
2023/11/18 06:38:58;;;;;;;0.40;0.40;;;19.00;58.00;;;17.51;48.19;95450.78;5053479;28;20766;-63
2023/11/18 06:41:33;;;;;;;0.40;0.40;;;19.00;58.00;;;17.52;48.43;95463.81;5053482;28;20288;-63
2023/11/18 06:44:09;;;;;;;0.40;0.40;;;19.00;58.00;;;17.40;47.96;95450.47;5037677;28;20206;-64
2023/11/18 06:46:39;;;;;;;0.50;0.50;;;19.00;58.00;;;17.50;48.05;95460.56;5037995;28;20221;-64
2023/11/18 06:49:10;;;;;;;0.45;0.45;;;19.00;58.00;;;17.51;47.92;95470.16;5053065;28;20200;-63
2023/11/18 06:51:38;;;;;;;0.40;0.40;;;19.00;58.00;;;17.52;48.31;95478.94;5054060;28;20202;-63
2023/11/18 06:54:09;;;;;;;0.40;0.40;;;19.00;58.00;;;17.53;47.99;95477.91;5054116;28;20195;-63
2023/11/18 06:56:44;;;;;;;0.50;0.50;;;19.00;58.00;;;17.50;48.21;95479.13;5053070;28;20203;-62
2023/11/18 06:59:13;;;;;;;0.55;0.55;;;19.00;58.00;;;17.46;48.44;95477.16;5053899;28;20330;-63
2023/11/18 07:01:43;;;;;;;0.50;0.50;;;19.00;58.00;;;17.52;48.17;95486.91;5053980;28;20674;-63
2023/11/18 07:04:14;;;;;;;0.47;0.47;;;19.00;58.00;;;17.51;47.97;95486.06;5036916;28;20207;-63
2023/11/18 07:06:43;;;;;;;0.50;0.50;;;19.00;58.00;;;17.53;48.15;95481.34;5036714;28;20297;-62
2023/11/18 07:09:13;;;;;;;0.50;0.50;;;19.00;58.00;;;17.54;48.37;95498.06;5036955;28;20195;-63
2023/11/18 07:11:41;;;;;;;0.50;0.50;;;19.00;58.00;;;17.47;47.78;95486.72;5036597;28;20203;-62
2023/11/18 07:14:10;;;;;;;0.50;0.50;;;19.00;58.00;;;17.55;48.03;95489.09;5053663;28;20546;-63
2023/11/18 07:16:39;;;;;;;0.40;0.40;;;19.00;58.00;;;17.53;48.35;95497.28;5053673;28;20599;-63
2023/11/18 07:19:09;;;;;;;0.40;0.40;;;19.00;58.00;;;17.55;48.41;95503.19;5052403;28;20219;-64
2023/11/18 07:21:38;;;;;;;0.50;0.50;;;19.00;58.00;;;17.54;48.31;95498.91;5052328;28;20199;-63
2023/11/18 07:24:06;;;;;;;0.50;0.50;;;19.00;58.00;;;17.55;47.93;95505.84;5035981;28;20217;-63
2023/11/18 07:26:34;;;;;;;0.43;0.43;;;19.00;58.00;;;17.54;48.16;95498.06;5035661;28;20187;-63
2023/11/18 07:29:01;;;;;;;0.50;0.50;;;19.00;58.00;;;17.50;47.87;95486.28;5052457;28;20213;-62
2023/11/18 07:31:29;;;;;;;0.50;0.50;;;19.00;58.00;;;17.49;48.37;95488.16;5052326;28;20732;-63
2023/11/18 07:33:56;;;;;;;0.50;0.50;;;19.00;58.00;;;17.56;47.91;95501.31;5052133;28;20231;-63
2023/11/18 07:36:23;;;;;;;0.47;0.47;;;19.00;57.90;;;17.56;48.29;95507.44;5052005;28;20200;-65
2023/11/18 07:38:51;;;;;;;0.40;0.40;;;19.00;58.00;;;17.50;48.23;95487.09;5053179;28;20738;-63
2023/11/18 07:41:27;;;;;;;0.40;0.40;;;19.00;58.00;;;17.57;48.38;95497.63;5052125;28;20238;-62
2023/11/18 07:44:00;;;;;;;0.40;0.40;;;19.00;58.00;;;17.50;47.91;95483.66;5051857;28;20218;-62
2023/11/18 07:46:30;;;;;;;0.40;0.40;;;19.00;57.90;;;17.49;48.32;95489.97;5052073;28;20539;-62
2023/11/18 07:49:01;;;;;;;0.50;0.50;;;19.00;58.00;;;17.57;48.05;95508.25;5053182;28;20279;-62
2023/11/18 07:51:29;;;;;;;0.45;0.45;;;19.00;57.90;;;17.57;48.18;95502.94;5051714;28;20548;-63
2023/11/18 07:53:56;;;;;;;0.50;0.50;;;19.00;57.90;;;17.56;48.39;95496.81;5051839;28;20195;-62
2023/11/18 07:56:24;;;;;;;0.40;0.40;;;19.00;57.90;;;17.51;48.32;95490.56;5051732;28;20206;-61
2023/11/18 07:58:52;;;;;;;0.50;0.50;;;19.00;57.90;;;17.58;48.18;95509.88;5052750;28;20281;-63
2023/11/18 08:01:23;;;;;;;0.47;0.47;;;19.00;58.00;;;17.59;48.27;95506.19;5052681;28;20293;-63
2023/11/18 08:03:52;;;;;;;0.40;0.40;;;19.00;58.00;;;17.58;48.11;95517.84;5035583;28;20203;-63
2023/11/18 08:06:20;;;;;;;0.40;0.40;;;19.00;58.00;;;17.53;48.34;95509.75;5051312;28;20203;-63
2023/11/18 08:08:48;;;;;;;0.50;0.50;;;19.00;58.00;;;17.54;48.32;95512.16;5051909;28;20202;-62
2023/11/18 08:11:17;;;;;;;0.60;0.60;;;19.00;58.00;;;17.54;48.14;95512.16;5052671;28;20283;-62
2023/11/18 08:13:44;;;;;;;0.50;0.50;;;19.00;58.00;;;17.56;48.19;95515.38;5052827;28;20199;-62
2023/11/18 08:16:13;;;;;;;0.40;0.40;;;19.00;58.00;;;17.55;48.16;95505.00;5052808;28;20199;-63
2023/11/18 08:18:40;;;;;;;0.50;0.50;;;19.00;58.00;;;17.55;47.98;95508.47;5052562;28;20234;-62
2023/11/18 08:21:08;;;;;;;0.40;0.40;;;19.10;58.10;;;17.64;48.19;95518.78;5051305;28;20290;-64
2023/11/18 08:23:35;;;;;;;0.50;0.50;;;19.00;58.00;;;17.64;47.91;95521.44;5052723;28;20995;-62
2023/11/18 08:26:05;;;;;;;0.43;0.43;;;19.00;58.00;;;17.63;48.15;95536.53;5051471;28;20202;-63
2023/11/18 08:28:33;;;;;;;0.52;0.52;;;19.00;59.30;;;17.64;47.88;95529.38;5034790;28;20206;-62
2023/11/18 08:31:00;;;;;;;0.40;0.40;;;19.10;58.10;;;17.59;48.05;95522.91;5052295;28;20616;-63
2023/11/18 08:33:28;;;;;;;0.47;0.47;;;19.10;58.00;;;17.64;48.19;95530.22;5052413;28;20207;-63
2023/11/18 08:35:57;;;;;;;0.50;0.50;;;19.10;58.10;;;17.59;48.34;95520.25;5051416;28;20195;-62
2023/11/18 08:38:24;;;;;;;0.50;0.50;;;19.10;58.00;;;17.60;48.34;95521.06;5051222;28;20302;-62
2023/11/18 08:40:52;;;;;;;0.43;0.43;;;19.10;58.00;;;17.68;48.15;95528.72;5051235;28;20389;-63
2023/11/18 08:43:20;;;;;;;0.47;0.47;;;19.10;58.00;;;17.67;47.88;95536.91;5051156;28;20273;-63
2023/11/18 08:45:50;;;;;;;0.40;0.40;;;19.10;58.10;;;17.63;48.59;95527.78;5052257;28;20195;-63
2023/11/18 08:48:18;;;;;;;0.40;0.40;;;19.10;58.10;;;17.70;47.92;95547.91;5052267;28;20670;-63
2023/11/18 08:50:46;;;;;;;0.50;0.50;;;19.10;58.10;;;17.71;47.97;95552.19;5051004;28;20223;-62
2023/11/18 08:53:17;;;;;;;0.40;0.40;;;19.10;58.10;;;17.71;48.22;95556.66;5051192;28;20195;-62
2023/11/18 08:55:53;;;;;;;0.50;0.50;;;19.10;58.10;;;17.64;48.34;95548.78;5054327;28;20265;-63
2023/11/18 08:58:27;;;;;;;0.43;0.43;;;19.10;58.00;;;17.71;47.93;95556.66;5056447;28;20210;-62
2023/11/18 09:01:23;;;;;;;0.40;0.40;;;19.10;58.00;;;17.72;48.16;95566.25;5055051;28;20231;-63
2023/11/18 09:03:51;;;;;;;0.40;0.40;;;19.10;58.00;;;17.72;48.56;95576.84;5057735;28;20199;-62
2023/11/18 09:06:27;;;;;;;0.40;0.40;;;19.10;58.00;;;17.72;48.07;95580.34;5054653;28;20230;-64
2023/11/18 09:08:57;;;;;;;0.50;0.50;;;19.10;58.00;;;17.71;48.46;95576.06;5039683;28;20218;-63
2023/11/18 09:11:32;;;;;;;0.50;0.50;;;19.20;58.00;;;17.76;48.25;95583.34;5054762;28;20674;-63
2023/11/18 09:14:03;;;;;;;0.57;0.57;;;19.20;58.00;;;17.75;48.29;95589.69;5054904;28;20203;-63
2023/11/18 09:16:38;;;;;;;0.40;0.40;;;19.10;58.00;;;17.76;48.31;95594.78;5054981;28;20203;-63
2023/11/18 09:19:06;;;;;;;0.50;0.50;;;19.20;58.10;;;17.76;48.48;95594.78;5055803;28;20249;-63
2023/11/18 09:21:35;;;;;;;0.40;0.40;;;19.20;58.10;;;17.76;48.30;95600.06;5055749;28;20716;-62
2023/11/18 09:24:11;;;;;;;0.45;0.45;;;19.20;58.10;;;17.77;48.22;95611.50;5055166;28;20643;-63
2023/11/18 09:26:40;;;;;;;0.50;0.50;;;19.20;58.10;;;17.78;48.06;95621.06;5054721;28;20191;-62
2023/11/18 09:29:11;;;;;;;0.40;0.40;;;19.20;58.50;;;17.75;47.99;95611.72;5054559;28;20678;-62
2023/11/18 09:31:39;;;;;;;0.50;0.50;;;19.20;58.10;;;17.71;48.47;95599.94;5054539;28;20550;-62
2023/11/18 09:34:15;;;;;;;0.43;0.43;;;19.20;58.10;;;17.80;48.37;95624.34;5054655;28;20253;-62
2023/11/18 09:36:48;;;;;;;0.45;0.45;;;19.20;58.10;;;17.73;47.82;95610.31;5054706;28;20236;-62
2023/11/18 09:39:29;;;;;;;0.50;0.50;;;19.20;58.20;;;17.74;48.07;95615.41;5055660;28;20224;-63
2023/11/18 09:41:57;;;;;;;0.50;0.50;;;19.20;58.20;;;17.73;48.20;95611.13;5053949;28;20206;-63
2023/11/18 09:44:27;;;;;;;0.40;0.40;;;19.20;58.10;;;17.82;48.18;95638.19;5054208;28;20252;-62
2023/11/18 09:47:04;;;;;;;0.45;0.45;;;19.20;58.20;;;17.76;48.23;95620.50;5054438;28;20195;-62
2023/11/18 09:49:44;;;;;;;0.50;0.50;;;19.20;58.10;;;17.82;48.46;95637.38;5054629;28;20196;-62
2023/11/18 09:52:21;;;;;;;0.50;0.50;;;19.20;58.10;;;17.84;48.18;95636.13;5037717;28;20253;-61
2023/11/18 09:55:14;;;;;;;0.50;0.50;;;19.20;58.10;;;17.83;48.20;95623.88;5038468;28;20199;-63
2023/11/18 09:57:53;;;;;;;0.40;0.40;;;19.20;58.00;;;17.83;48.09;95623.09;5070565;28;20203;-62
2023/11/18 10:00:26;;;;;;;0.40;0.40;;;19.20;58.10;;;17.84;48.28;95620.19;5055258;28;20237;-62
2023/11/18 10:03:00;;;;;;;0.50;0.50;;;19.20;58.00;;;17.84;47.97;95628.16;5037431;28;20279;-63
2023/11/18 10:05:30;;;;;;;0.40;0.40;;;19.20;58.00;;;17.84;48.29;95624.69;5054474;28;20657;-62
2023/11/18 10:08:01;;;;;;;0.63;0.63;;;19.20;58.00;;;17.86;48.01;95617.34;5037613;28;20203;-63
2023/11/18 10:10:35;;;;;;;0.50;0.50;;;19.20;58.00;;;17.79;47.98;95606.78;5053646;28;20188;-63
2023/11/18 10:13:18;;;;;;;0.40;0.40;;;19.20;58.00;;;17.84;48.08;95616.75;5053723;28;20195;-62
2023/11/18 10:15:47;;;;;;;0.40;0.40;;;19.20;58.10;;;17.86;48.08;95618.16;5054793;28;20610;-62
2023/11/18 10:18:24;;;;;;;0.40;0.40;;;19.20;59.30;;;17.86;47.81;95610.19;5053570;28;20262;-62
2023/11/18 10:20:53;;;;;;;0.40;0.40;;;19.30;58.10;;;17.85;47.95;95603.25;5053806;28;20191;-62
2023/11/18 10:23:24;;;;;;;0.40;0.40;;;19.20;58.00;;;17.87;48.26;95611.81;5054678;28;20203;-62
2023/11/18 10:25:56;;;;;;;0.50;0.50;;;19.20;58.00;;;17.88;47.99;95605.47;5053404;28;20652;-63
2023/11/18 10:28:32;;;;;;;0.40;0.40;;;19.30;58.30;;;17.89;48.10;95611.59;5054415;28;20203;-61
2023/11/18 10:31:03;;;;;;;0.47;0.47;;;19.30;58.30;;;17.90;48.51;95610.56;5053857;28;20446;-64